createdAt,value
2018-07-10T00:00:02.167Z,17.15
2018-07-10T00:01:02.248Z,17.36
2018-07-10T00:02:02.210Z,17.39
2018-07-10T00:03:02.445Z,17.40
2018-07-10T00:04:02.418Z,17.27
2018-07-10T00:05:02.293Z,17.43
2018-07-10T00:06:02.243Z,17.43
2018-07-10T00:07:02.257Z,17.53
2018-07-10T00:08:02.224Z,17.30
2018-07-10T00:09:02.176Z,17.24
2018-07-10T00:10:02.410Z,17.27
2018-07-10T00:11:02.181Z,17.15
2018-07-10T00:12:02.137Z,17.21
2018-07-10T00:13:02.284Z,16.98
2018-07-10T00:14:02.194Z,17.05
2018-07-10T00:15:02.173Z,17.17
2018-07-10T00:16:02.151Z,16.90
2018-07-10T00:17:02.426Z,17.00
2018-07-10T00:18:02.198Z,16.87
2018-07-10T00:19:02.158Z,17.06
2018-07-10T00:20:01.762Z,17.00
2018-07-10T00:21:02.274Z,17.03
2018-07-10T00:22:02.179Z,17.10
2018-07-10T00:23:02.443Z,16.87
2018-07-10T00:24:02.426Z,16.92
2018-07-10T00:25:02.155Z,17.07
2018-07-10T00:26:02.446Z,17.22
2018-07-10T00:27:02.239Z,17.15
2018-07-10T00:28:02.238Z,17.12
2018-07-10T00:29:02.249Z,17.24
2018-07-10T00:30:02.251Z,17.24
2018-07-10T00:31:02.264Z,17.14
2018-07-10T00:32:02.265Z,17.05
2018-07-10T00:33:02.263Z,17.05
2018-07-10T00:34:02.244Z,16.88
2018-07-10T00:35:02.152Z,17.05
2018-07-10T00:36:02.277Z,16.92
2018-07-10T00:37:02.248Z,16.99
2018-07-10T00:38:01.791Z,16.84
2018-07-10T00:39:02.216Z,16.84
2018-07-10T00:40:02.217Z,16.91
2018-07-10T00:41:01.769Z,16.77
2018-07-10T00:42:02.235Z,16.87
2018-07-10T00:43:02.417Z,16.90
2018-07-10T00:44:02.416Z,16.69
2018-07-10T00:45:02.293Z,16.70
2018-07-10T00:46:02.260Z,16.73
2018-07-10T00:47:02.438Z,16.78
2018-07-10T00:48:02.419Z,16.88
2018-07-10T00:49:02.438Z,17.05
2018-07-10T00:50:02.790Z,16.72
2018-07-10T00:51:01.803Z,16.55
2018-07-10T00:52:02.198Z,16.67
2018-07-10T00:53:02.214Z,16.78
2018-07-10T00:54:02.184Z,16.59
2018-07-10T00:55:01.728Z,16.59
2018-07-10T00:56:01.991Z,16.78
2018-07-10T00:57:02.518Z,16.92
2018-07-10T00:59:01.921Z,16.90
2018-07-10T01:00:04.047Z,16.85
2018-07-10T01:01:02.455Z,16.65
2018-07-10T01:02:02.518Z,16.60
2018-07-10T01:03:02.451Z,16.70
2018-07-10T01:04:02.440Z,16.77
2018-07-10T01:05:02.442Z,16.87
2018-07-10T01:06:02.421Z,16.73
2018-07-10T01:07:02.784Z,16.84
2018-07-10T01:08:01.725Z,16.91
2018-07-10T01:09:02.282Z,16.84
2018-07-10T01:10:01.971Z,16.81
2018-07-10T01:11:02.241Z,16.88
2018-07-10T01:12:02.210Z,16.87
2018-07-10T01:13:01.720Z,16.78
2018-07-10T01:14:02.441Z,16.90
2018-07-10T01:15:02.324Z,16.88
2018-07-10T01:16:02.284Z,16.87
2018-07-10T01:17:02.239Z,16.75
2018-07-10T01:18:02.247Z,16.75
2018-07-10T01:19:02.311Z,16.73
2018-07-10T01:20:02.223Z,16.78
2018-07-10T01:21:02.476Z,16.91
2018-07-10T01:22:02.268Z,16.80
2018-07-10T01:23:02.229Z,16.91
2018-07-10T01:24:02.573Z,16.78
2018-07-10T01:25:02.228Z,16.73
2018-07-10T01:26:02.266Z,16.67
2018-07-10T01:27:02.243Z,16.70
2018-07-10T01:28:02.207Z,16.69
2018-07-10T01:29:02.244Z,16.75
2018-07-10T01:30:02.191Z,16.59
2018-07-10T01:31:01.636Z,16.60
2018-07-10T01:32:02.231Z,16.63
2018-07-10T01:33:02.213Z,16.55
2018-07-10T01:34:02.473Z,16.69
2018-07-10T01:35:02.190Z,16.67
2018-07-10T01:36:02.475Z,16.70
2018-07-10T01:37:02.241Z,16.57
2018-07-10T01:38:02.469Z,16.52
2018-07-10T01:39:02.181Z,16.72
2018-07-10T01:40:02.259Z,16.62
2018-07-10T01:41:02.229Z,16.70
2018-07-10T01:42:02.234Z,16.70
2018-07-10T01:43:02.268Z,16.67
2018-07-10T01:44:02.251Z,16.69
2018-07-10T01:45:02.273Z,16.72
2018-07-10T01:46:02.186Z,16.70
2018-07-10T01:47:02.260Z,16.69
2018-07-10T01:48:04.025Z,16.66
2018-07-10T01:49:02.286Z,16.63
2018-07-10T01:50:02.172Z,16.54
2018-07-10T01:51:01.686Z,16.63
2018-07-10T01:52:02.191Z,16.63
2018-07-10T01:53:02.245Z,16.66
2018-07-10T01:54:02.260Z,16.57
2018-07-10T01:55:02.202Z,16.59
2018-07-10T01:56:02.253Z,16.40
2018-07-10T01:57:02.193Z,16.45
2018-07-10T01:58:02.282Z,16.55
2018-07-10T01:59:02.215Z,16.55
2018-07-10T02:01:02.201Z,16.34
2018-07-10T02:02:02.230Z,16.40
2018-07-10T02:03:02.478Z,16.33
2018-07-10T02:04:02.479Z,16.44
2018-07-10T02:05:02.471Z,16.45
2018-07-10T02:06:02.478Z,16.50
2018-07-10T02:07:02.251Z,16.50
2018-07-10T02:08:02.272Z,16.44
2018-07-10T02:09:02.283Z,16.42
2018-07-10T02:10:02.268Z,16.59
2018-07-10T02:11:02.269Z,16.62
2018-07-10T02:12:02.434Z,16.59
2018-07-10T02:13:02.442Z,16.50
2018-07-10T02:14:02.547Z,16.40
2018-07-10T02:15:04.017Z,16.52
2018-07-10T02:16:02.436Z,16.57
2018-07-10T02:17:01.936Z,16.51
2018-07-10T02:18:02.438Z,16.62
2018-07-10T02:19:02.437Z,16.60
2018-07-10T02:20:02.229Z,16.59
2018-07-10T02:21:02.481Z,16.51
2018-07-10T02:22:02.259Z,16.48
2018-07-10T02:23:02.238Z,16.30
2018-07-10T02:24:02.260Z,16.27
2018-07-10T02:25:02.239Z,16.36
2018-07-10T02:26:02.296Z,16.44
2018-07-10T02:27:02.215Z,16.50
2018-07-10T02:28:02.237Z,16.37
2018-07-10T02:29:02.188Z,16.26
2018-07-10T02:30:02.239Z,16.32
2018-07-10T02:31:02.267Z,16.36
2018-07-10T02:32:02.254Z,16.37
2018-07-10T02:33:02.279Z,16.29
2018-07-10T02:34:02.255Z,16.22
2018-07-10T02:35:02.240Z,16.16
2018-07-10T02:36:02.249Z,16.17
2018-07-10T02:37:04.080Z,16.23
2018-07-10T02:38:02.230Z,16.22
2018-07-10T02:39:02.315Z,16.25
2018-07-10T02:40:02.260Z,16.22
2018-07-10T02:41:02.240Z,16.22
2018-07-10T02:42:04.488Z,16.11
2018-07-10T02:43:02.214Z,16.27
2018-07-10T02:44:02.249Z,16.29
2018-07-10T02:45:02.280Z,16.03
2018-07-10T02:46:01.910Z,16.10
2018-07-10T02:47:01.963Z,16.16
2018-07-10T02:48:02.000Z,16.22
2018-07-10T02:49:01.924Z,16.14
2018-07-10T02:50:01.942Z,15.99
2018-07-10T02:51:01.942Z,15.95
2018-07-10T02:52:01.997Z,15.99
2018-07-10T02:53:01.869Z,15.89
2018-07-10T02:54:01.928Z,16.06
2018-07-10T02:55:01.895Z,16.03
2018-07-10T02:56:02.027Z,15.93
2018-07-10T02:57:01.985Z,15.85
2018-07-10T02:58:01.997Z,15.91
2018-07-10T02:59:01.965Z,16.04
2018-07-10T03:00:01.960Z,15.93
2018-07-10T03:01:01.941Z,15.84
2018-07-10T03:02:02.002Z,15.98
2018-07-10T03:03:01.962Z,16.01
2018-07-10T03:04:02.016Z,15.96
2018-07-10T03:05:02.133Z,16.01
2018-07-10T03:06:02.049Z,16.08
2018-07-10T03:07:02.062Z,16.11
2018-07-10T03:08:02.100Z,15.96
2018-07-10T03:09:01.908Z,16.06
2018-07-10T03:10:01.928Z,16.03
2018-07-10T03:11:01.940Z,16.07
2018-07-10T03:12:01.813Z,15.91
2018-07-10T03:13:01.928Z,16.03
2018-07-10T03:14:01.879Z,16.01
2018-07-10T03:15:01.851Z,16.01
2018-07-10T03:16:02.002Z,16.03
2018-07-10T03:17:01.928Z,15.98
2018-07-10T03:18:01.876Z,16.07
2018-07-10T03:19:01.898Z,16.01
2018-07-10T03:20:01.971Z,16.07
2018-07-10T03:21:01.925Z,16.04
2018-07-10T03:22:02.018Z,16.22
2018-07-10T03:23:01.852Z,16.07
2018-07-10T03:24:01.853Z,16.08
2018-07-10T03:25:03.607Z,16.03
2018-07-10T03:26:01.932Z,16.06
2018-07-10T03:27:01.860Z,16.03
2018-07-10T03:28:01.867Z,16.01
2018-07-10T03:29:03.712Z,16.06
2018-07-10T03:30:01.955Z,15.78
2018-07-10T03:31:01.868Z,15.92
2018-07-10T03:32:01.970Z,15.95
2018-07-10T03:33:02.006Z,15.95
2018-07-10T03:34:01.928Z,15.99
2018-07-10T03:35:01.872Z,15.96
2018-07-10T03:36:01.795Z,15.99
2018-07-10T03:37:01.786Z,16.03
2018-07-10T03:38:01.778Z,16.11
2018-07-10T03:39:01.783Z,16.07
2018-07-10T03:40:03.525Z,16.10
2018-07-10T03:41:01.830Z,16.07
2018-07-10T03:42:01.878Z,16.16
2018-07-10T03:43:02.301Z,16.01
2018-07-10T03:44:01.935Z,16.04
2018-07-10T03:45:01.853Z,16.04
2018-07-10T03:46:01.772Z,16.01
2018-07-10T03:47:01.964Z,16.04
2018-07-10T03:48:01.855Z,16.08
2018-07-10T03:49:03.611Z,16.07
2018-07-10T03:50:02.472Z,16.06
2018-07-10T03:51:01.909Z,16.01
2018-07-10T03:52:01.912Z,16.16
2018-07-10T03:53:01.826Z,16.08
2018-07-10T03:54:01.699Z,16.03
2018-07-10T03:55:01.893Z,16.14
2018-07-10T03:56:01.914Z,15.98
2018-07-10T03:58:01.892Z,15.99
2018-07-10T03:59:02.011Z,16.01
2018-07-10T04:00:01.997Z,16.04
2018-07-10T04:01:01.965Z,16.03
2018-07-10T04:02:01.954Z,15.91
2018-07-10T04:03:01.855Z,15.89
2018-07-10T04:04:01.832Z,15.88
2018-07-10T04:05:01.989Z,15.91
2018-07-10T04:06:01.847Z,15.89
2018-07-10T04:07:01.844Z,15.81
2018-07-10T04:08:01.788Z,15.85
2018-07-10T04:09:01.814Z,16.01
2018-07-10T04:10:01.880Z,16.04
2018-07-10T04:11:01.810Z,15.99
2018-07-10T04:12:01.887Z,16.06
2018-07-10T04:13:01.836Z,16.06
2018-07-10T04:14:01.972Z,16.01
2018-07-10T04:15:01.789Z,16.01
2018-07-10T04:16:01.750Z,16.03
2018-07-10T04:17:03.617Z,16.04
2018-07-10T04:18:01.934Z,16.01
2018-07-10T04:19:01.791Z,16.07
2018-07-10T04:20:01.850Z,16.01
2018-07-10T04:21:01.896Z,16.08
2018-07-10T04:23:01.807Z,16.01
2018-07-10T04:24:01.922Z,16.03
2018-07-10T04:25:01.855Z,16.03
2018-07-10T04:26:01.929Z,15.93
2018-07-10T04:27:01.791Z,15.98
2018-07-10T04:28:01.791Z,15.99
2018-07-10T04:29:02.041Z,15.96
2018-07-10T04:30:01.849Z,16.13
2018-07-10T04:31:01.571Z,15.93
2018-07-10T04:32:01.982Z,15.95
2018-07-10T04:33:01.463Z,16.07
2018-07-10T04:34:02.419Z,16.03
2018-07-10T04:35:01.435Z,16.04
2018-07-10T04:36:02.074Z,15.99
2018-07-10T04:37:02.022Z,16.04
2018-07-10T04:38:02.301Z,16.10
2018-07-10T04:39:02.525Z,16.08
2018-07-10T04:40:02.062Z,16.17
2018-07-10T04:41:02.110Z,16.22
2018-07-10T04:42:01.996Z,16.07
2018-07-10T04:43:02.060Z,16.22
2018-07-10T04:44:01.852Z,16.22
2018-07-10T04:45:02.703Z,16.08
2018-07-10T04:46:01.772Z,16.08
2018-07-10T04:47:02.146Z,16.22
2018-07-10T04:48:02.343Z,16.11
2018-07-10T04:49:02.032Z,16.03
2018-07-10T04:50:01.984Z,15.95
2018-07-10T04:51:01.783Z,16.07
2018-07-10T04:52:01.483Z,16.01
2018-07-10T04:53:02.066Z,16.07
2018-07-10T04:54:02.083Z,16.11
2018-07-10T04:55:02.077Z,15.99
2018-07-10T04:56:02.073Z,15.99
2018-07-10T04:57:01.487Z,15.96
2018-07-10T04:58:02.047Z,15.92
2018-07-10T04:59:01.979Z,15.98
2018-07-10T05:00:01.981Z,15.99
2018-07-10T05:01:02.093Z,16.16
2018-07-10T05:02:01.740Z,16.07
2018-07-10T05:03:02.283Z,16.18
2018-07-10T05:04:01.486Z,16.29
2018-07-10T05:05:01.857Z,16.16
2018-07-10T05:06:01.698Z,16.29
2018-07-10T05:07:01.771Z,16.16
2018-07-10T05:08:02.037Z,15.99
2018-07-10T05:09:01.784Z,16.07
2018-07-10T05:10:02.042Z,15.96
2018-07-10T05:11:01.502Z,16.01
2018-07-10T05:12:02.212Z,15.95
2018-07-10T05:13:01.774Z,15.99
2018-07-10T05:14:03.585Z,16.07
2018-07-10T05:15:01.391Z,16.01
2018-07-10T05:16:02.009Z,16.01
2018-07-10T05:17:01.891Z,16.07
2018-07-10T05:18:02.099Z,16.10
2018-07-10T05:19:01.762Z,16.06
2018-07-10T05:20:02.088Z,16.13
2018-07-10T05:21:01.423Z,16.25
2018-07-10T05:22:03.944Z,16.40
2018-07-10T05:23:01.826Z,16.08
2018-07-10T05:24:02.067Z,16.03
2018-07-10T05:25:01.813Z,16.10
2018-07-10T05:26:01.845Z,16.26
2018-07-10T05:27:01.491Z,16.18
2018-07-10T05:28:02.033Z,16.30
2018-07-10T05:29:01.958Z,16.23
2018-07-10T05:30:02.349Z,16.27
2018-07-10T05:31:03.922Z,16.30
2018-07-10T05:32:01.498Z,16.29
2018-07-10T05:33:01.753Z,16.06
2018-07-10T05:34:02.048Z,16.04
2018-07-10T05:35:01.899Z,16.14
2018-07-10T05:36:02.318Z,16.33
2018-07-10T05:37:02.000Z,16.25
2018-07-10T05:38:01.996Z,16.23
2018-07-10T05:39:02.045Z,16.22
2018-07-10T05:40:04.470Z,16.42
2018-07-10T05:41:02.052Z,16.48
2018-07-10T05:42:01.937Z,16.45
2018-07-10T05:43:01.566Z,16.45
2018-07-10T05:44:01.797Z,16.45
2018-07-10T05:45:02.000Z,16.59
2018-07-10T05:46:02.066Z,16.62
2018-07-10T05:47:02.001Z,16.42
2018-07-10T05:48:01.998Z,16.33
2018-07-10T05:49:02.053Z,16.23
2018-07-10T05:50:02.050Z,16.25
2018-07-10T05:51:02.492Z,16.10
2018-07-10T05:52:02.181Z,16.23
2018-07-10T05:53:02.369Z,16.45
2018-07-10T05:54:04.048Z,16.36
2018-07-10T05:55:02.067Z,16.22
2018-07-10T05:56:01.933Z,16.13
2018-07-10T05:57:02.085Z,16.27
2018-07-10T05:58:01.845Z,16.18
2018-07-10T05:59:01.880Z,16.37
2018-07-10T06:00:02.364Z,16.45
2018-07-10T06:01:01.812Z,16.41
2018-07-10T06:02:02.378Z,16.59
2018-07-10T06:03:02.063Z,16.55
2018-07-10T06:04:02.090Z,16.57
2018-07-10T06:05:01.877Z,16.44
2018-07-10T06:06:01.865Z,16.47
2018-07-10T06:07:02.465Z,16.41
2018-07-10T06:08:02.424Z,16.37
2018-07-10T06:09:02.057Z,16.47
2018-07-10T06:10:02.103Z,16.59
2018-07-10T06:11:01.934Z,16.59
2018-07-10T06:12:01.808Z,16.62
2018-07-10T06:13:01.788Z,16.57
2018-07-10T06:14:02.541Z,16.48
2018-07-10T06:15:02.083Z,16.51
2018-07-10T06:16:01.797Z,16.45
2018-07-10T06:17:01.550Z,16.69
2018-07-10T06:18:01.865Z,16.63
2018-07-10T06:19:01.767Z,16.70
2018-07-10T06:20:01.796Z,16.67
2018-07-10T06:21:02.046Z,16.88
2018-07-10T06:22:01.813Z,16.99
2018-07-10T06:23:02.329Z,16.73
2018-07-10T06:24:02.464Z,16.52
2018-07-10T06:25:01.511Z,16.44
2018-07-10T06:26:02.100Z,16.54
2018-07-10T06:27:03.959Z,16.45
2018-07-10T06:28:02.460Z,16.45
2018-07-10T06:29:01.808Z,16.52
2018-07-10T06:30:01.796Z,16.36
2018-07-10T06:31:01.785Z,16.42
2018-07-10T06:32:01.827Z,16.41
2018-07-10T06:33:01.289Z,16.62
2018-07-10T06:34:01.855Z,16.62
2018-07-10T06:35:01.180Z,16.69
2018-07-10T06:36:02.054Z,16.60
2018-07-10T06:37:01.847Z,16.59
2018-07-10T06:38:01.826Z,16.59
2018-07-10T06:39:01.796Z,16.57
2018-07-10T06:40:02.055Z,16.63
2018-07-10T06:41:02.027Z,16.59
2018-07-10T06:42:02.054Z,16.54
2018-07-10T06:43:01.800Z,16.69
2018-07-10T06:44:01.840Z,16.65
2018-07-10T06:45:02.060Z,16.48
2018-07-10T06:46:02.051Z,16.63
2018-07-10T06:47:01.841Z,16.63
2018-07-10T06:48:02.074Z,16.63
2018-07-10T06:49:02.090Z,16.48
2018-07-10T06:50:01.851Z,16.55
2018-07-10T06:51:02.098Z,16.66
2018-07-10T06:52:01.798Z,16.70
2018-07-10T06:53:01.493Z,16.60
2018-07-10T06:54:01.789Z,16.37
2018-07-10T06:55:01.780Z,16.23
2018-07-10T06:56:02.093Z,16.40
2018-07-10T06:57:01.835Z,16.30
2018-07-10T06:58:02.382Z,16.33
2018-07-10T06:59:02.416Z,16.44
2018-07-10T07:00:02.017Z,16.36
2018-07-10T07:01:02.379Z,16.34
2018-07-10T07:02:03.566Z,16.27
2018-07-10T07:03:02.085Z,16.17
2018-07-10T07:04:01.258Z,16.27
2018-07-10T07:05:02.376Z,16.33
2018-07-10T07:06:02.061Z,16.45
2018-07-10T07:07:02.378Z,16.42
2018-07-10T07:08:01.703Z,16.59
2018-07-10T07:09:02.375Z,16.33
2018-07-10T07:10:01.622Z,16.36
2018-07-10T07:11:01.866Z,16.51
2018-07-10T07:12:02.388Z,16.33
2018-07-10T07:13:01.549Z,16.41
2018-07-10T07:14:02.099Z,16.47
2018-07-10T07:15:01.848Z,16.29
2018-07-10T07:16:02.136Z,16.45
2018-07-10T07:17:01.881Z,16.32
2018-07-10T07:18:02.068Z,16.36
2018-07-10T07:19:01.598Z,16.34
2018-07-10T07:20:01.565Z,16.13
2018-07-10T07:21:01.604Z,16.03
2018-07-10T07:22:01.564Z,16.18
2018-07-10T07:23:02.072Z,16.18
2018-07-10T07:24:01.569Z,16.30
2018-07-10T07:25:01.829Z,15.98
2018-07-10T07:26:01.918Z,15.99
2018-07-10T07:27:03.618Z,16.01
2018-07-10T07:28:04.579Z,15.96
2018-07-10T07:29:01.299Z,16.06
2018-07-10T07:30:04.067Z,15.93
2018-07-10T07:31:01.324Z,15.92
2018-07-10T07:32:01.577Z,15.73
2018-07-10T07:33:01.621Z,15.73
2018-07-10T07:34:01.782Z,15.85
2018-07-10T07:35:01.731Z,15.92
2018-07-10T07:36:01.717Z,15.91
2018-07-10T07:37:01.665Z,15.98
2018-07-10T07:38:02.035Z,15.91
2018-07-10T07:39:02.072Z,16.04
2018-07-10T07:40:01.627Z,16.06
2018-07-10T07:41:02.027Z,15.96
2018-07-10T07:42:02.167Z,16.07
2018-07-10T07:43:02.067Z,15.88
2018-07-10T07:44:01.674Z,15.89
2018-07-10T07:45:03.899Z,15.98
2018-07-10T07:46:01.590Z,15.77
2018-07-10T07:47:01.548Z,15.74
2018-07-10T07:48:01.808Z,15.66
2018-07-10T07:49:01.573Z,15.60
2018-07-10T07:50:01.837Z,15.38
2018-07-10T07:51:02.154Z,15.60
2018-07-10T07:52:01.392Z,15.52
2018-07-10T07:53:01.569Z,15.84
2018-07-10T07:54:01.857Z,15.73
2018-07-10T07:55:03.457Z,15.60
2018-07-10T07:56:01.155Z,15.68
2018-07-10T07:57:01.509Z,15.60
2018-07-10T07:58:01.609Z,15.35
2018-07-10T07:59:01.518Z,15.37
2018-07-10T08:00:01.630Z,15.68
2018-07-10T08:01:01.536Z,15.81
2018-07-10T08:02:01.356Z,15.67
2018-07-10T08:03:02.035Z,15.55
2018-07-10T08:04:01.538Z,15.71
2018-07-10T08:05:02.035Z,15.58
2018-07-10T08:06:01.503Z,15.53
2018-07-10T08:07:01.622Z,15.53
2018-07-10T08:08:01.540Z,15.55
2018-07-10T08:09:01.659Z,15.51
2018-07-10T08:10:01.527Z,15.35
2018-07-10T08:11:01.537Z,15.37
2018-07-10T08:12:01.748Z,15.44
2018-07-10T08:13:01.623Z,15.55
2018-07-10T08:14:01.535Z,15.55
2018-07-10T08:15:01.582Z,15.51
2018-07-10T08:16:01.547Z,15.55
2018-07-10T08:17:01.588Z,15.51
2018-07-10T08:18:01.581Z,15.31
2018-07-10T08:19:01.533Z,15.33
2018-07-10T08:20:01.832Z,15.31
2018-07-10T08:21:01.260Z,15.41
2018-07-10T08:22:01.644Z,15.41
2018-07-10T08:23:02.461Z,15.38
2018-07-10T08:24:01.540Z,15.52
2018-07-10T08:25:01.588Z,15.58
2018-07-10T08:26:04.046Z,15.40
2018-07-10T08:27:01.557Z,15.41
2018-07-10T08:28:01.686Z,15.55
2018-07-10T08:29:01.553Z,15.59
2018-07-10T08:30:03.578Z,15.37
2018-07-10T08:31:02.067Z,15.49
2018-07-10T08:32:01.883Z,15.25
2018-07-10T08:33:01.562Z,15.33
2018-07-10T08:34:01.805Z,15.37
2018-07-10T08:35:03.539Z,15.40
2018-07-10T08:36:01.549Z,15.23
2018-07-10T08:37:01.401Z,15.23
2018-07-10T08:38:01.551Z,15.34
2018-07-10T08:39:01.540Z,15.34
2018-07-10T08:40:01.565Z,15.30
2018-07-10T08:41:03.548Z,15.23
2018-07-10T08:42:01.540Z,15.28
2018-07-10T08:43:01.426Z,15.37
2018-07-10T08:44:01.544Z,15.25
2018-07-10T08:45:01.546Z,15.23
2018-07-10T08:46:01.548Z,15.30
2018-07-10T08:47:01.440Z,15.19
2018-07-10T08:48:01.543Z,15.37
2018-07-10T08:49:01.650Z,15.31
2018-07-10T08:50:01.698Z,15.12
2018-07-10T08:51:01.602Z,15.15
2018-07-10T08:52:01.551Z,15.16
2018-07-10T08:53:01.561Z,15.07
2018-07-10T08:54:01.403Z,15.13
2018-07-10T08:55:02.043Z,15.30
2018-07-10T08:56:01.553Z,15.18
2018-07-10T08:57:01.701Z,15.13
2018-07-10T08:58:01.615Z,15.30
2018-07-10T08:59:03.451Z,15.19
2018-07-10T09:00:01.552Z,15.28
2018-07-10T09:01:01.542Z,15.35
2018-07-10T09:02:03.550Z,15.31
2018-07-10T09:03:01.554Z,15.35
2018-07-10T09:04:01.614Z,15.31
2018-07-10T09:05:01.570Z,15.30
2018-07-10T09:06:03.559Z,15.34
2018-07-10T09:07:01.766Z,15.31
2018-07-10T09:08:01.481Z,15.43
2018-07-10T09:09:01.551Z,15.53
2018-07-10T09:10:01.559Z,15.43
2018-07-10T09:11:01.549Z,15.56
2018-07-10T09:12:01.490Z,15.51
2018-07-10T09:13:01.051Z,15.49
2018-07-10T09:14:01.385Z,15.44
2018-07-10T09:15:01.754Z,15.43
2018-07-10T09:16:02.819Z,15.55
2018-07-10T09:17:01.629Z,15.58
2018-07-10T09:18:01.405Z,15.25
2018-07-10T09:19:01.460Z,15.31
2018-07-10T09:20:01.958Z,15.46
2018-07-10T09:21:02.045Z,15.46
2018-07-10T09:22:01.544Z,15.48
2018-07-10T09:23:01.562Z,15.62
2018-07-10T09:24:01.554Z,15.55
2018-07-10T09:25:01.564Z,15.60
2018-07-10T09:26:01.602Z,15.59
2018-07-10T09:27:01.556Z,15.67
2018-07-10T09:28:01.559Z,15.55
2018-07-10T09:29:01.560Z,15.70
2018-07-10T09:30:01.559Z,15.51
2018-07-10T09:31:01.558Z,15.56
2018-07-10T09:32:01.554Z,15.53
2018-07-10T09:33:01.572Z,15.56
2018-07-10T09:34:01.470Z,15.70
2018-07-10T09:35:01.559Z,15.74
2018-07-10T09:36:01.563Z,15.81
2018-07-10T09:37:01.393Z,15.73
2018-07-10T09:38:01.060Z,15.91
2018-07-10T09:39:01.614Z,16.03
2018-07-10T09:40:01.641Z,15.96
2018-07-10T09:41:01.578Z,15.95
2018-07-10T09:42:01.388Z,15.73
2018-07-10T09:43:01.555Z,15.70
2018-07-10T09:44:01.666Z,15.66
2018-07-10T09:45:01.556Z,15.73
2018-07-10T09:46:01.559Z,15.77
2018-07-10T09:47:01.617Z,15.74
2018-07-10T09:48:01.422Z,15.84
2018-07-10T09:49:01.560Z,15.74
2018-07-10T09:50:01.562Z,15.78
2018-07-10T09:51:01.483Z,15.73
2018-07-10T09:52:01.443Z,15.58
2018-07-10T09:53:01.462Z,15.73
2018-07-10T09:54:03.353Z,15.74
2018-07-10T09:55:01.570Z,15.80
2018-07-10T09:56:01.568Z,15.59
2018-07-10T09:57:01.622Z,15.60
2018-07-10T09:58:03.750Z,15.58
2018-07-10T09:59:01.562Z,15.37
2018-07-10T10:00:01.564Z,15.52
2018-07-10T10:01:01.681Z,15.68
2018-07-10T10:02:01.633Z,15.49
2018-07-10T10:03:01.084Z,15.52
2018-07-10T10:04:01.634Z,15.48
2018-07-10T10:05:01.431Z,15.55
2018-07-10T10:06:01.570Z,15.52
2018-07-10T10:07:01.371Z,15.56
2018-07-10T10:08:01.392Z,15.52
2018-07-10T10:09:01.566Z,15.56
2018-07-10T10:10:01.403Z,15.58
2018-07-10T10:11:01.566Z,15.41
2018-07-10T10:12:01.416Z,15.48
2018-07-10T10:13:01.441Z,15.46
2018-07-10T10:14:01.603Z,15.52
2018-07-10T10:15:03.265Z,15.60
2018-07-10T10:16:01.574Z,15.59
2018-07-10T10:17:01.416Z,15.71
2018-07-10T10:18:01.112Z,15.76
2018-07-10T10:19:01.571Z,15.95
2018-07-10T10:20:01.569Z,15.95
2018-07-10T10:21:01.749Z,15.86
2018-07-10T10:22:01.590Z,15.70
2018-07-10T10:23:01.565Z,15.78
2018-07-10T10:24:01.540Z,15.80
2018-07-10T10:25:01.574Z,15.88
2018-07-10T10:26:01.574Z,15.80
2018-07-10T10:27:01.483Z,15.77
2018-07-10T10:28:01.574Z,15.78
2018-07-10T10:29:01.356Z,15.74
2018-07-10T10:30:01.561Z,15.89
2018-07-10T10:31:01.590Z,15.89
2018-07-10T10:32:01.073Z,15.76
2018-07-10T10:33:01.570Z,15.80
2018-07-10T10:34:01.577Z,15.95
2018-07-10T10:35:01.360Z,15.88
2018-07-10T10:36:01.486Z,15.88
2018-07-10T10:37:01.234Z,15.88
2018-07-10T10:38:01.465Z,15.86
2018-07-10T10:39:01.870Z,15.86
2018-07-10T10:40:01.125Z,15.85
2018-07-10T10:41:01.581Z,15.93
2018-07-10T10:42:01.601Z,15.89
2018-07-10T10:43:01.577Z,15.93
2018-07-10T10:44:03.408Z,15.99
2018-07-10T10:45:03.193Z,15.89
2018-07-10T10:46:01.073Z,15.88
2018-07-10T10:47:01.795Z,15.78
2018-07-10T10:48:01.703Z,15.96
2018-07-10T10:49:02.079Z,15.91
2018-07-10T10:50:01.574Z,15.95
2018-07-10T10:51:01.848Z,16.06
2018-07-10T10:52:01.573Z,16.03
2018-07-10T10:53:01.538Z,15.96
2018-07-10T10:54:01.682Z,16.11
2018-07-10T10:55:01.602Z,16.17
2018-07-10T10:56:01.577Z,16.16
2018-07-10T10:57:01.580Z,16.27
2018-07-10T10:58:03.580Z,16.04
2018-07-10T10:59:03.700Z,16.07
2018-07-10T11:00:01.624Z,16.18
2018-07-10T11:01:01.450Z,16.22
2018-07-10T11:02:01.610Z,16.03
2018-07-10T11:03:01.085Z,16.18
2018-07-10T11:04:01.676Z,16.11
2018-07-10T11:05:01.392Z,16.22
2018-07-10T11:06:01.638Z,16.34
2018-07-10T11:07:01.384Z,16.37
2018-07-10T11:08:01.419Z,16.34
2018-07-10T11:09:01.428Z,16.29
2018-07-10T11:10:01.447Z,16.26
2018-07-10T11:11:01.482Z,16.40
2018-07-10T11:12:01.587Z,16.34
2018-07-10T11:13:01.639Z,16.66
2018-07-10T11:14:01.423Z,16.59
2018-07-10T11:15:01.377Z,16.54
2018-07-10T11:16:01.592Z,16.54
2018-07-10T11:17:03.581Z,16.65
2018-07-10T11:18:01.506Z,16.70
2018-07-10T11:19:01.520Z,16.65
2018-07-10T11:20:01.605Z,16.84
2018-07-10T11:21:01.401Z,16.92
2018-07-10T11:22:01.583Z,17.10
2018-07-10T11:23:02.033Z,16.80
2018-07-10T11:24:01.590Z,16.87
2018-07-10T11:25:03.287Z,16.85
2018-07-10T11:26:01.609Z,17.07
2018-07-10T11:27:01.641Z,17.21
2018-07-10T11:28:01.461Z,17.30
2018-07-10T11:29:01.594Z,17.39
2018-07-10T11:30:01.797Z,17.21
2018-07-10T11:31:01.594Z,17.21
2018-07-10T11:32:01.613Z,17.36
2018-07-10T11:33:00.919Z,17.27
2018-07-10T11:34:01.587Z,17.22
2018-07-10T11:35:03.252Z,17.43
2018-07-10T11:36:01.593Z,17.39
2018-07-10T11:37:01.431Z,17.18
2018-07-10T11:38:01.417Z,17.18
2018-07-10T11:39:01.467Z,17.27
2018-07-10T11:40:01.657Z,17.27
2018-07-10T11:41:01.589Z,17.22
2018-07-10T11:42:01.448Z,17.27
2018-07-10T11:43:03.444Z,17.21
2018-07-10T11:44:01.255Z,17.18
2018-07-10T11:45:01.231Z,17.24
2018-07-10T11:46:01.144Z,17.27
2018-07-10T11:47:01.158Z,17.28
2018-07-10T11:48:01.133Z,17.25
2018-07-10T11:49:01.188Z,17.33
2018-07-10T11:50:01.135Z,17.43
2018-07-10T11:51:03.096Z,17.39
2018-07-10T11:52:02.987Z,17.54
2018-07-10T11:53:01.597Z,17.49
2018-07-10T11:54:03.103Z,17.54
2018-07-10T11:55:01.580Z,17.80
2018-07-10T11:56:01.189Z,17.83
2018-07-10T11:57:03.902Z,17.89
2018-07-10T11:58:03.096Z,17.83
2018-07-10T11:59:01.274Z,17.94
2018-07-10T12:00:01.147Z,18.02
2018-07-10T12:01:01.603Z,17.94
2018-07-10T12:02:03.308Z,17.95
2018-07-10T12:03:03.100Z,18.17
2018-07-10T12:04:02.960Z,18.54
2018-07-10T12:05:00.770Z,18.78
2018-07-10T12:06:01.328Z,18.47
2018-07-10T12:07:01.023Z,18.71
2018-07-10T12:08:03.292Z,18.86
2018-07-10T12:09:01.175Z,18.90
2018-07-10T12:10:01.116Z,18.76
2018-07-10T12:11:01.099Z,18.72
2018-07-10T12:12:01.157Z,18.82
2018-07-10T12:13:02.926Z,18.90
2018-07-10T12:14:01.605Z,18.82
2018-07-10T12:15:01.227Z,18.62
2018-07-10T12:16:01.233Z,18.60
2018-07-10T12:17:03.124Z,18.53
2018-07-10T12:18:03.105Z,18.49
2018-07-10T12:19:03.464Z,18.53
2018-07-10T12:20:01.140Z,18.56
2018-07-10T12:21:01.107Z,18.66
2018-07-10T12:22:04.003Z,18.66
2018-07-10T12:23:01.214Z,18.42
2018-07-10T12:24:01.168Z,18.28
2018-07-10T12:25:03.113Z,18.41
2018-07-10T12:26:01.158Z,18.39
2018-07-10T12:27:03.104Z,18.38
2018-07-10T12:28:01.115Z,18.28
2018-07-10T12:29:01.179Z,18.21
2018-07-10T12:30:01.608Z,18.19
2018-07-10T12:31:03.109Z,18.19
2018-07-10T12:32:01.171Z,18.31
2018-07-10T12:33:03.161Z,18.14
2018-07-10T12:34:01.114Z,18.44
2018-07-10T12:35:01.135Z,18.71
2018-07-10T12:36:02.948Z,18.71
2018-07-10T12:37:01.032Z,18.90
2018-07-10T12:38:01.257Z,19.42
2018-07-10T12:39:01.107Z,19.95
2018-07-10T12:40:01.125Z,20.34
2018-07-10T12:41:01.107Z,20.26
2018-07-10T12:42:02.995Z,20.08
2018-07-10T12:43:01.186Z,20.10
2018-07-10T12:44:00.773Z,20.42
2018-07-10T12:45:01.109Z,20.51
2018-07-10T12:46:01.473Z,20.10
2018-07-10T12:47:01.243Z,19.78
2018-07-10T12:48:01.140Z,19.64
2018-07-10T12:49:01.247Z,19.68
2018-07-10T12:50:01.619Z,19.57
2018-07-10T12:51:03.116Z,19.35
2018-07-10T12:52:01.297Z,19.34
2018-07-10T12:53:00.785Z,19.40
2018-07-10T12:54:03.197Z,19.65
2018-07-10T12:55:03.091Z,20.01
2018-07-10T12:56:01.618Z,20.25